Time;durP1;ratioP1;P1;durP2;ratioP2;P2;SDS_P1;SDS_P2;PMS_P1;PMS_P2;Temp;Humidity;BMP_temperature;BMP_pressure;BME280_temperature;BME280_humidity;BME280_pressure;Samples;Min_cycle;Max_cycle;Signal;HPM_P1;HPM_P2
2022/08/18 00:00:01;;;;;;;13.68;5.97;;;19.00;99.90;;;;;;5035262;28;20033;-78
2022/08/18 00:02:28;;;;;;;11.65;5.43;;;19.00;99.90;;;;;;5035045;28;20053;-77
2022/08/18 00:04:55;;;;;;;11.48;6.15;;;18.90;99.90;;;;;;5035168;28;20116;-77
2022/08/18 00:07:26;;;;;;;11.55;5.72;;;18.90;99.90;;;;;;5033744;28;20052;-77
2022/08/18 00:09:52;;;;;;;10.30;5.90;;;18.90;99.90;;;;;;5035045;28;20405;-77
2022/08/18 00:12:38;;;;;;;12.65;5.80;;;18.90;99.90;;;;;;5034990;28;20477;-77
2022/08/18 00:15:10;;;;;;;9.57;5.05;;;18.80;99.90;;;;;;5034957;28;20049;-77
2022/08/18 00:17:38;;;;;;;14.68;5.80;;;18.80;99.90;;;;;;5035010;28;20068;-77
2022/08/18 00:20:09;;;;;;;10.45;5.47;;;18.80;99.90;;;;;;5033789;28;20045;-77
2022/08/18 00:22:35;;;;;;;8.95;5.43;;;18.80;99.90;;;;;;5034850;28;20111;-77
2022/08/18 00:25:01;;;;;;;12.98;5.20;;;18.80;99.90;;;;;;5034784;28;20124;-76
2022/08/18 00:27:29;;;;;;;8.40;5.43;;;18.80;99.90;;;;;;5034330;28;20141;-77
2022/08/18 00:29:57;;;;;;;9.23;5.53;;;18.80;99.90;;;;;;5033219;28;20045;-77
2022/08/18 00:32:26;;;;;;;16.92;5.93;;;18.70;99.90;;;;;;5033263;28;20128;-77
2022/08/18 00:34:52;;;;;;;7.85;5.63;;;18.80;99.90;;;;;;5034763;28;20064;-77
2022/08/18 00:37:18;;;;;;;10.15;5.65;;;18.80;99.90;;;;;;5033449;28;20037;-76
2022/08/18 00:39:44;;;;;;;9.35;5.90;;;18.80;99.90;;;;;;5033901;28;20049;-77
2022/08/18 00:42:20;;;;;;;12.55;6.35;;;18.80;99.90;;;;;;5032928;28;20101;-76
2022/08/18 00:44:45;;;;;;;10.23;5.88;;;18.80;99.90;;;;;;5034451;28;20037;-77
2022/08/18 00:47:11;;;;;;;9.23;5.65;;;18.80;99.90;;;;;;5033025;28;20448;-78
2022/08/18 00:49:40;;;;;;;15.32;5.60;;;18.80;99.90;;;;;;5034367;28;20052;-77
2022/08/18 00:52:06;;;;;;;11.45;6.13;;;18.90;99.90;;;;;;5034307;28;20038;-77
2022/08/18 00:54:34;;;;;;;8.68;5.80;;;18.80;99.90;;;;;;5034167;28;20435;-78
2022/08/18 00:57:03;;;;;;;7.90;5.03;;;18.70;99.90;;;;;;5033028;28;20378;-77
2022/08/18 01:00:03;;;;;;;11.05;5.93;;;18.70;99.90;;;;;;5034166;28;20060;-77
2022/08/18 01:02:34;;;;;;;8.10;5.55;;;18.70;99.90;;;;;;5032795;28;20523;-77
2022/08/18 01:05:10;;;;;;;13.30;6.20;;;18.70;99.90;;;;;;5034081;28;20073;-76
2022/08/18 01:07:43;;;;;;;12.20;6.00;;;18.70;99.90;;;;;;5033918;28;20547;-77
2022/08/18 01:10:13;;;;;;;8.60;5.93;;;18.80;99.90;;;;;;5032733;28;20049;-77
2022/08/18 01:12:39;;;;;;;7.68;5.35;;;18.80;99.90;;;;;;5034247;28;20460;-76
2022/08/18 01:15:05;;;;;;;11.13;5.25;;;18.80;99.90;;;;;;5033983;28;20540;-76
2022/08/18 01:23:15;;;;;;;10.13;5.70;;;18.80;99.90;;;;;;5033621;28;20052;-77
2022/08/18 01:26:03;;;;;;;10.80;5.75;;;18.80;99.90;;;;;;5033602;28;20110;-77
2022/08/18 01:28:40;;;;;;;7.78;5.25;;;18.90;99.90;;;;;;5032417;28;20211;-77
2022/08/18 01:31:08;;;;;;;11.52;5.93;;;18.80;99.90;;;;;;5032480;28;20042;-77
2022/08/18 01:33:38;;;;;;;12.75;5.97;;;18.90;99.90;;;;;;5033723;28;20053;-77
2022/08/18 01:36:15;;;;;;;9.70;5.32;;;18.90;99.90;;;;;;5033589;28;20081;-77
2022/08/18 01:38:43;;;;;;;10.50;5.95;;;18.90;99.90;;;;;;5032269;28;20477;-77
2022/08/18 01:41:09;;;;;;;12.52;5.88;;;18.90;99.90;;;;;;5032300;28;20044;-77
2022/08/18 01:43:35;;;;;;;12.70;6.78;;;18.90;99.90;;;;;;5032473;28;20049;-77
2022/08/18 01:46:03;;;;;;;12.07;6.07;;;18.90;99.90;;;;;;5032559;28;20560;-76
2022/08/18 01:48:33;;;;;;;8.95;5.70;;;19.00;99.90;;;;;;5033529;28;20045;-76
2022/08/18 01:51:05;;;;;;;10.43;5.30;;;18.90;99.90;;;;;;5032067;28;20053;-76
2022/08/18 01:53:30;;;;;;;9.68;5.88;;;18.90;99.90;;;;;;5037445;28;20400;-77
2022/08/18 01:55:56;;;;;;;11.85;5.32;;;18.90;99.90;;;;;;5037574;28;20042;-77
2022/08/18 01:58:26;;;;;;;10.93;5.55;;;18.80;99.90;;;;;;5037365;28;20037;-77
2022/08/18 02:00:55;;;;;;;11.82;5.30;;;18.80;99.90;;;;;;5037406;28;20056;-77
2022/08/18 02:03:23;;;;;;;8.63;5.28;;;18.90;99.90;;;;;;5037364;28;20440;-77
2022/08/18 02:05:49;;;;;;;10.52;5.43;;;18.90;99.90;;;;;;5035932;28;20091;-77
2022/08/18 02:08:15;;;;;;;10.48;5.25;;;18.90;99.90;;;;;;5037407;28;20107;-77
2022/08/18 02:10:41;;;;;;;9.43;5.35;;;18.90;99.90;;;;;;5037349;28;20405;-77
2022/08/18 02:13:07;;;;;;;7.57;4.88;;;18.90;99.90;;;;;;5035897;28;20057;-77
2022/08/18 02:15:33;;;;;;;8.43;4.88;;;18.90;99.90;;;;;;5037253;28;20048;-76
2022/08/18 02:17:59;;;;;;;7.75;4.82;;;18.80;99.90;;;;;;5036153;28;20037;-76
2022/08/18 02:20:25;;;;;;;8.30;5.10;;;18.80;99.90;;;;;;5036880;28;20519;-76
2022/08/18 02:22:51;;;;;;;7.75;5.50;;;18.80;99.90;;;;;;5036919;28;20049;-76
2022/08/18 02:25:18;;;;;;;10.23;5.43;;;18.90;99.90;;;;;;5037012;28;20048;-76
2022/08/18 02:27:44;;;;;;;8.77;5.10;;;18.80;99.90;;;;;;5036821;28;20054;-76
2022/08/18 02:30:13;;;;;;;9.18;4.93;;;18.80;99.90;;;;;;5036962;28;20037;-76
2022/08/18 02:32:40;;;;;;;9.95;5.65;;;18.80;99.90;;;;;;5035657;28;20462;-76
2022/08/18 02:35:10;;;;;;;8.85;5.00;;;18.80;99.90;;;;;;5036896;28;20042;-76
2022/08/18 02:37:36;;;;;;;10.30;4.60;;;18.80;99.90;;;;;;5035355;28;20049;-76
2022/08/18 02:40:03;;;;;;;11.98;5.25;;;18.90;99.90;;;;;;5036855;28;20041;-76
2022/08/18 02:42:29;;;;;;;10.80;4.85;;;18.80;99.90;;;;;;5035419;28;20072;-76
2022/08/18 02:44:55;;;;;;;9.05;4.85;;;18.80;99.90;;;;;;5036600;28;20060;-76
2022/08/18 02:47:21;;;;;;;9.45;5.20;;;18.90;99.90;;;;;;5036661;28;20037;-76
2022/08/18 02:49:47;;;;;;;10.55;5.00;;;18.80;99.90;;;;;;5036708;28;20041;-76
2022/08/18 02:52:13;;;;;;;8.65;4.70;;;18.90;99.90;;;;;;5036571;28;20059;-76
2022/08/18 02:54:38;;;;;;;9.38;4.72;;;18.80;99.90;;;;;;5036451;28;20038;-76
2022/08/18 02:57:11;;;;;;;10.63;4.22;;;18.90;99.90;;;;;;5035339;28;20477;-77
2022/08/18 02:59:39;;;;;;;10.20;4.15;;;18.90;99.90;;;;;;5036329;28;20400;-76
2022/08/18 03:02:06;;;;;;;9.80;4.05;;;19.10;99.90;;;;;;5036062;28;20045;-76
2022/08/18 03:04:32;;;;;;;7.55;3.95;;;19.00;99.90;;;;;;5035352;28;20033;-76
2022/08/18 03:07:01;;;;;;;7.97;4.00;;;19.00;99.90;;;;;;5036284;28;20080;-76
2022/08/18 03:09:28;;;;;;;7.68;4.88;;;19.00;99.90;;;;;;5036252;28;20046;-76
2022/08/18 03:11:53;;;;;;;6.78;3.92;;;19.00;99.90;;;;;;5034878;28;20489;-76
2022/08/18 03:14:19;;;;;;;9.55;4.47;;;19.00;99.90;;;;;;5036129;28;20037;-77
2022/08/18 03:16:47;;;;;;;9.07;5.30;;;19.00;99.90;;;;;;5036094;28;20048;-77
2022/08/18 03:19:15;;;;;;;7.80;4.22;;;18.90;99.90;;;;;;5034686;28;20040;-77
2022/08/18 03:21:45;;;;;;;8.80;4.75;;;18.90;99.90;;;;;;5035983;28;20050;-77
2022/08/18 03:24:11;;;;;;;7.13;4.75;;;18.80;99.90;;;;;;5036030;28;20042;-77
2022/08/18 03:26:43;;;;;;;10.38;4.38;;;18.90;99.90;;;;;;5034492;28;20057;-77
2022/08/18 03:29:09;;;;;;;12.23;4.10;;;18.80;99.90;;;;;;5035857;28;20076;-77
2022/08/18 03:31:37;;;;;;;11.35;4.38;;;18.90;99.90;;;;;;5034685;28;20049;-77
2022/08/18 03:34:05;;;;;;;10.68;4.60;;;18.80;99.90;;;;;;5035787;28;20120;-77
2022/08/18 03:36:32;;;;;;;12.15;4.90;;;18.90;99.90;;;;;;5035711;28;20042;-77
2022/08/18 03:39:03;;;;;;;8.95;4.25;;;18.90;99.90;;;;;;5035690;28;20188;-77
2022/08/18 03:41:30;;;;;;;9.45;3.92;;;18.80;99.90;;;;;;5035566;28;20124;-77
2022/08/18 03:43:55;;;;;;;9.18;4.53;;;18.80;99.90;;;;;;5035573;28;20051;-77
2022/08/18 03:46:24;;;;;;;9.85;4.22;;;18.80;99.90;;;;;;5034090;28;20049;-77
2022/08/18 03:48:52;;;;;;;13.15;4.65;;;18.80;99.90;;;;;;5035314;28;20445;-77
2022/08/18 03:51:26;;;;;;;10.73;4.43;;;18.80;99.90;;;;;;5035500;28;20045;-77
2022/08/18 03:53:54;;;;;;;11.30;4.85;;;18.80;99.90;;;;;;5035287;28;20547;-78
2022/08/18 03:56:23;;;;;;;7.88;4.32;;;18.70;99.90;;;;;;5035375;28;20041;-77
2022/08/18 03:58:52;;;;;;;11.35;4.35;;;18.70;99.90;;;;;;5035370;28;20049;-77
2022/08/18 04:01:23;;;;;;;11.68;4.47;;;18.70;99.90;;;;;;5035208;28;20038;-77
2022/08/18 04:03:55;;;;;;;10.25;4.32;;;18.70;99.90;;;;;;5035280;28;20041;-77
2022/08/18 04:06:28;;;;;;;13.10;4.63;;;18.70;99.90;;;;;;5033891;28;20424;-77
2022/08/18 04:08:55;;;;;;;10.77;3.80;;;18.70;99.90;;;;;;5035242;28;20045;-78
2022/08/18 04:11:21;;;;;;;12.23;4.72;;;18.80;99.90;;;;;;5033955;28;20049;-78
2022/08/18 04:13:47;;;;;;;8.45;4.55;;;18.70;99.90;;;;;;5034926;28;20046;-78
2022/08/18 04:16:13;;;;;;;12.45;4.70;;;18.70;99.90;;;;;;5033235;28;20041;-77
2022/08/18 04:18:39;;;;;;;8.20;4.53;;;18.70;99.90;;;;;;5033865;28;20041;-77
2022/08/18 04:21:08;;;;;;;9.95;4.30;;;18.70;99.90;;;;;;5033363;28;20139;-78
2022/08/18 04:23:38;;;;;;;11.63;4.68;;;18.70;99.90;;;;;;5034879;28;20041;-78
2022/08/18 04:26:05;;;;;;;9.23;4.30;;;18.70;99.90;;;;;;5034679;28;20053;-77
2022/08/18 04:28:32;;;;;;;11.68;4.07;;;18.70;99.90;;;;;;5033792;28;20067;-77
2022/08/18 04:30:58;;;;;;;11.82;4.72;;;18.60;99.90;;;;;;5034712;28;20042;-77
2022/08/18 04:33:26;;;;;;;9.15;4.60;;;18.60;99.90;;;;;;5034624;28;20107;-77
2022/08/18 04:35:52;;;;;;;6.50;4.00;;;18.60;99.90;;;;;;5033448;28;20049;-77
2022/08/18 04:38:18;;;;;;;14.73;5.00;;;18.50;99.90;;;;;;5034581;28;20129;-77
2022/08/18 04:40:46;;;;;;;11.95;5.00;;;18.60;99.90;;;;;;5033171;28;20096;-77
2022/08/18 04:43:14;;;;;;;10.65;5.03;;;18.60;99.90;;;;;;5033851;28;20056;-77
2022/08/18 04:45:47;;;;;;;12.10;5.18;;;18.70;99.90;;;;;;5033250;28;20048;-77
2022/08/18 04:48:14;;;;;;;11.13;5.20;;;18.70;99.90;;;;;;5034046;28;20377;-77
2022/08/18 04:50:41;;;;;;;10.52;5.25;;;18.70;99.90;;;;;;5034039;28;20484;-77
2022/08/18 04:55:54;;;;;;;9.55;5.05;;;18.70;99.90;;;;;;5033589;28;20056;-77
2022/08/18 04:58:21;;;;;;;13.10;5.25;;;18.70;99.90;;;;;;5031758;28;20052;-77
2022/08/18 05:00:59;;;;;;;11.15;4.55;;;18.70;99.90;;;;;;5031685;28;20473;-77
2022/08/18 05:03:25;;;;;;;11.07;5.25;;;18.70;99.90;;;;;;5032867;28;20485;-77
2022/08/18 05:05:59;;;;;;;13.43;5.60;;;18.80;99.90;;;;;;5033834;28;20045;-77
2022/08/18 05:08:25;;;;;;;14.50;4.97;;;18.70;99.90;;;;;;5033963;28;20532;-77
2022/08/18 05:10:58;;;;;;;12.93;4.53;;;18.80;99.90;;;;;;5033896;28;20037;-77
2022/08/18 05:13:24;;;;;;;13.02;4.55;;;18.80;99.90;;;;;;5032514;28;20049;-78
2022/08/18 05:15:55;;;;;;;9.57;4.10;;;18.80;99.90;;;;;;5033939;28;20527;-77
2022/08/18 05:18:23;;;;;;;12.52;3.50;;;18.90;99.90;;;;;;5033681;28;20095;-77
2022/08/18 05:20:53;;;;;;;10.98;3.97;;;18.80;99.90;;;;;;5032460;28;20049;-77
2022/08/18 05:23:20;;;;;;;9.30;3.45;;;18.90;99.90;;;;;;5033560;28;20048;-78
2022/08/18 05:25:46;;;;;;;13.20;3.80;;;19.00;99.90;;;;;;5033259;28;20091;-76
2022/08/18 05:28:13;;;;;;;10.20;3.30;;;18.90;99.90;;;;;;5032027;28;20050;-77
2022/08/18 05:30:40;;;;;;;11.38;3.30;;;18.90;99.90;;;;;;5032472;28;20052;-77
2022/08/18 05:33:09;;;;;;;13.43;2.80;;;18.90;99.90;;;;;;5033396;28;20057;-77
2022/08/18 05:35:48;;;;;;;7.43;2.83;;;18.90;99.90;;;;;;5032426;28;20037;-77
2022/08/18 05:38:28;;;;;;;9.77;2.70;;;18.90;99.90;;;;;;5033385;28;20401;-77
2022/08/18 05:41:18;;;;;;;6.90;2.53;;;18.80;99.90;;;;;;5033577;28;20045;-76
2022/08/18 05:43:47;;;;;;;9.35;2.60;;;18.90;99.90;;;;;;5033665;28;20121;-76
2022/08/18 05:46:14;;;;;;;7.50;2.35;;;18.80;99.90;;;;;;5032262;28;20095;-76
2022/08/18 05:48:39;;;;;;;9.88;2.50;;;18.90;99.90;;;;;;5032078;28;20057;-76
2022/08/18 05:51:16;;;;;;;8.13;2.08;;;18.80;99.90;;;;;;5033199;28;20045;-77
2022/08/18 05:56:47;;;;;;;4.95;1.98;;;18.80;99.90;;;;;;5033260;28;20068;-77
2022/08/18 05:59:32;;;;;;;4.90;2.20;;;18.90;99.90;;;;;;5033349;28;20077;-77
2022/08/18 06:02:14;;;;;;;3.58;2.10;;;18.80;99.90;;;;;;5031971;28;20056;-77
2022/08/18 06:04:58;;;;;;;6.38;1.70;;;18.90;99.90;;;;;;5033215;28;20088;-76
2022/08/18 06:07:35;;;;;;;3.55;1.55;;;18.80;99.90;;;;;;5032150;28;20045;-76
2022/08/18 06:10:04;;;;;;;6.80;1.50;;;18.80;99.90;;;;;;5033402;28;20041;-76
2022/08/18 06:12:33;;;;;;;6.63;1.67;;;18.90;99.90;;;;;;5033248;28;20050;-76
2022/08/18 06:15:27;;;;;;;4.75;1.50;;;18.80;99.90;;;;;;5031809;28;20048;-76
2022/08/18 06:18:20;;;;;;;5.32;1.65;;;18.80;99.90;;;;;;5032180;28;20045;-76
2022/08/18 06:21:13;;;;;;;6.30;1.45;;;18.80;99.90;;;;;;5033072;28;20176;-76
2022/08/18 06:23:50;;;;;;;4.07;1.30;;;18.80;99.90;;;;;;5031753;28;20053;-77
2022/08/18 06:26:21;;;;;;;4.68;1.13;;;18.80;99.90;;;;;;5033137;28;20139;-76
2022/08/18 06:28:56;;;;;;;2.95;1.23;;;18.70;99.90;;;;;;5031904;28;20057;-76
2022/08/18 06:31:44;;;;;;;2.72;1.40;;;18.90;99.90;;;;;;5033248;28;20060;-77
2022/08/18 06:34:25;;;;;;;3.25;1.35;;;18.90;99.90;;;;;;5031641;28;20073;-76
2022/08/18 06:37:22;;;;;;;5.82;1.30;;;18.90;99.90;;;;;;5033195;28;20041;-76
2022/08/18 06:39:50;;;;;;;4.47;1.35;;;18.90;99.90;;;;;;5033167;28;20057;-75
2022/08/18 06:42:25;;;;;;;5.82;1.30;;;19.00;99.90;;;;;;5047688;28;20123;-75
2022/08/18 06:45:12;;;;;;;4.07;1.50;;;19.00;99.90;;;;;;5055050;28;20128;-75
2022/08/18 06:48:02;;;;;;;4.82;1.38;;;18.90;99.90;;;;;;5054923;28;20084;-75
2022/08/18 06:50:34;;;;;;;5.97;1.77;;;19.00;99.90;;;;;;5056404;28;20037;-76
2022/08/18 06:53:04;;;;;;;6.45;2.08;;;19.10;99.90;;;;;;5054750;28;20486;-75
2022/08/18 06:55:42;;;;;;;5.57;1.50;;;19.00;99.90;;;;;;5056224;28;20044;-75
2022/08/18 06:58:17;;;;;;;7.78;1.90;;;19.10;99.90;;;;;;5055015;28;20496;-75
2022/08/18 07:00:48;;;;;;;6.07;2.35;;;19.20;99.90;;;;;;5054574;28;20563;-75
2022/08/18 07:03:18;;;;;;;7.97;2.40;;;19.50;99.90;;;;;;5054782;28;20369;-76
2022/08/18 07:06:03;;;;;;;7.80;2.20;;;19.70;99.90;;;;;;5054549;28;20040;-75
2022/08/18 07:08:40;;;;;;;9.52;2.63;;;19.70;99.90;;;;;;5054844;28;20432;-75
2022/08/18 07:11:30;;;;;;;7.28;2.40;;;19.80;99.90;;;;;;5055728;28;20056;-76
2022/08/18 07:14:20;;;;;;;7.88;2.80;;;19.80;99.90;;;;;;5044785;28;20076;-77
2022/08/18 07:16:46;;;;;;;10.73;3.50;;;19.90;99.90;;;;;;5054402;28;20098;-77
2022/08/18 07:19:15;;;;;;;11.75;2.97;;;20.00;99.90;;;;;;5055674;28;20036;-75
2022/08/18 07:21:43;;;;;;;6.70;2.60;;;20.20;99.90;;;;;;5055406;28;20060;-76
2022/08/18 07:24:08;;;;;;;7.40;2.58;;;20.20;99.90;;;;;;5055658;28;20079;-77
2022/08/18 07:26:57;;;;;;;5.80;2.03;;;20.20;99.90;;;;;;5055194;28;20092;-75
2022/08/18 07:29:22;;;;;;;6.72;2.10;;;20.10;99.90;;;;;;5045965;28;20053;-76
2022/08/18 07:31:51;;;;;;;6.57;1.90;;;20.10;99.90;;;;;;5055477;28;20484;-76
2022/08/18 07:34:39;;;;;;;5.88;1.88;;;20.10;99.90;;;;;;5055617;28;20045;-76
2022/08/18 07:37:07;;;;;;;6.97;1.90;;;20.30;99.90;;;;;;5055274;28;20453;-75
2022/08/18 07:39:49;;;;;;;7.50;1.90;;;20.40;99.90;;;;;;5055111;28;20395;-77
2022/08/18 07:42:43;;;;;;;4.25;1.85;;;20.50;99.90;;;;;;5055355;28;20040;-76
2022/08/18 07:45:18;;;;;;;5.07;1.65;;;20.50;99.90;;;;;;5053130;28;20045;-75
2022/08/18 07:48:02;;;;;;;7.50;1.77;;;20.40;99.90;;;;;;5055116;28;20099;-75
2022/08/18 07:50:34;;;;;;;5.38;1.60;;;20.40;99.90;;;;;;5054579;28;20162;-75
2022/08/18 07:53:14;;;;;;;4.75;1.77;;;20.30;99.90;;;;;;5053915;28;20041;-75
2022/08/18 07:55:46;;;;;;;5.45;1.40;;;20.40;99.90;;;;;;5053921;28;20045;-76
2022/08/18 07:58:42;;;;;;;5.03;1.52;;;20.30;99.90;;;;;;5053629;28;20124;-76
2022/08/18 08:01:36;;;;;;;5.53;1.35;;;20.30;99.90;;;;;;5053480;28;20041;-76
2022/08/18 08:04:31;;;;;;;5.72;1.38;;;20.30;99.90;;;;;;5054092;28;20056;-74
2022/08/18 08:07:24;;;;;;;4.03;1.20;;;20.30;99.90;;;;;;5054976;28;20049;-75
2022/08/18 08:10:17;;;;;;;3.42;1.30;;;20.20;99.90;;;;;;5053405;28;20045;-75
2022/08/18 08:12:46;;;;;;;2.55;1.13;;;20.30;99.90;;;;;;5053439;28;20120;-75
2022/08/18 08:15:45;;;;;;;6.05;1.40;;;20.20;99.90;;;;;;5052767;28;20044;-74
2022/08/18 08:18:24;;;;;;;4.60;1.40;;;20.30;99.90;;;;;;5044787;28;20060;-75
2022/08/18 08:21:15;;;;;;;3.83;1.52;;;20.30;99.90;;;;;;5051594;28;20033;-75
2022/08/18 08:23:53;;;;;;;3.75;1.65;;;20.40;99.90;;;;;;5050885;28;20049;-75
2022/08/18 08:27:04;;;;;;;6.13;1.30;;;20.40;99.90;;;;;;5050385;28;20049;-76
2022/08/18 08:29:39;;;;;;;6.13;1.60;;;20.40;99.90;;;;;;5031168;28;20045;-76
2022/08/18 08:32:26;;;;;;;3.35;1.33;;;20.50;99.90;;;;;;5034541;28;20114;-75
2022/08/18 08:34:56;;;;;;;3.65;1.27;;;20.50;99.90;;;;;;5034170;28;20124;-78
2022/08/18 08:37:57;;;;;;;6.95;1.63;;;20.60;99.90;;;;;;5034544;28;20130;-75
2022/08/18 08:40:27;;;;;;;5.60;1.23;;;20.70;99.90;;;;;;5034368;28;20038;-75
2022/08/18 08:43:08;;;;;;;2.65;1.35;;;20.60;99.90;;;;;;5034283;28;20037;-75
2022/08/18 08:45:44;;;;;;;4.95;1.48;;;20.60;99.90;;;;;;5040305;28;20048;-75
2022/08/18 08:48:32;;;;;;;5.18;1.23;;;20.80;99.90;;;;;;5053957;28;20128;-75
2022/08/18 08:51:16;;;;;;;3.92;1.40;;;20.90;99.90;;;;;;5052842;28;20076;-76
2022/08/18 08:53:52;;;;;;;5.97;1.25;;;21.00;99.90;;;;;;5051994;28;20072;-77
2022/08/18 08:56:21;;;;;;;3.63;1.50;;;21.10;99.90;;;;;;5052153;28;20053;-76
2022/08/18 08:59:06;;;;;;;4.13;1.42;;;21.20;99.90;;;;;;5053641;28;20045;-76
2022/08/18 09:01:50;;;;;;;2.85;1.10;;;21.30;99.90;;;;;;5052796;28;20083;-76
2022/08/18 09:04:26;;;;;;;2.65;1.20;;;21.10;99.90;;;;;;5052339;28;20437;-77
2022/08/18 09:07:32;;;;;;;2.63;1.17;;;21.30;99.90;;;;;;5052659;28;20128;-76
2022/08/18 09:10:09;;;;;;;4.20;1.40;;;21.30;99.90;;;;;;5052462;28;20076;-78
2022/08/18 09:12:54;;;;;;;2.85;1.17;;;21.30;99.90;;;;;;5053424;28;20033;-78
2022/08/18 09:15:41;;;;;;;3.45;1.35;;;21.30;99.90;;;;;;5041279;28;20052;-76
2022/08/18 09:18:28;;;;;;;4.85;1.40;;;21.40;99.90;;;;;;5052400;28;20103;-76
2022/08/18 09:21:21;;;;;;;3.63;1.35;;;21.40;99.90;;;;;;5051968;28;20077;-76
2022/08/18 09:23:50;;;;;;;5.50;1.52;;;21.50;99.90;;;;;;5044894;28;20500;-76
2022/08/18 09:26:22;;;;;;;4.55;1.58;;;21.50;99.90;;;;;;5053126;28;20565;-85
2022/08/18 09:28:59;;;;;;;3.53;1.00;;;21.50;99.90;;;;;;5052320;28;20048;-86
2022/08/18 09:31:27;;;;;;;7.85;2.50;;;21.50;99.90;;;;;;5052142;28;20127;-86
2022/08/18 09:34:11;;;;;;;2.20;1.02;;;21.50;99.90;;;;;;5051557;28;20052;-76
2022/08/18 09:37:02;;;;;;;2.72;1.45;;;21.40;99.90;;;;;;5052407;28;20091;-82
2022/08/18 09:42:27;;;;;;;3.05;1.40;;;21.40;99.90;;;;;;5046873;28;20045;-83
2022/08/18 09:44:54;;;;;;;2.72;1.30;;;21.50;99.90;;;;;;5052429;28;20045;-84
2022/08/18 09:47:20;;;;;;;4.35;1.10;;;21.50;99.90;;;;;;5050245;28;20047;-75
2022/08/18 09:49:53;;;;;;;2.88;0.90;;;21.50;99.90;;;;;;5051866;28;20049;-84
2022/08/18 09:52:21;;;;;;;7.32;1.50;;;21.60;99.90;;;;;;5051908;28;20072;-85
2022/08/18 09:54:53;;;;;;;3.38;1.20;;;21.50;99.90;;;;;;5053347;28;20048;-83
2022/08/18 09:57:23;;;;;;;3.38;1.42;;;21.70;99.90;;;;;;5051813;28;20366;-81
2022/08/18 09:59:50;;;;;;;1.88;1.13;;;21.90;99.90;;;;;;5053042;28;20049;-82
2022/08/18 10:02:28;;;;;;;4.63;1.45;;;22.10;99.90;;;;;;5052768;28;20045;-84
2022/08/18 10:05:15;;;;;;;2.08;1.20;;;22.30;99.90;;;;;;5051744;28;20159;-77
2022/08/18 10:07:45;;;;;;;4.57;1.48;;;22.40;99.90;;;;;;5052955;28;20087;-78
2022/08/18 10:10:21;;;;;;;3.50;1.35;;;22.50;99.90;;;;;;5051561;28;20049;-75
2022/08/18 10:13:04;;;;;;;3.17;1.30;;;22.50;99.90;;;;;;5054224;28;20103;-75
2022/08/18 10:15:45;;;;;;;4.75;1.45;;;22.50;99.90;;;;;;5057149;28;20068;-76
2022/08/18 10:18:16;;;;;;;2.67;1.20;;;22.50;99.90;;;;;;5056850;28;20049;-75
2022/08/18 10:21:17;;;;;;;5.53;1.20;;;22.50;99.90;;;;;;5056784;28;20036;-76
2022/08/18 10:24:03;;;;;;;2.03;0.95;;;22.50;99.90;;;;;;5056920;28;20045;-76
2022/08/18 10:26:29;;;;;;;2.80;1.30;;;22.50;99.90;;;;;;5055260;28;20061;-76
2022/08/18 10:29:05;;;;;;;2.38;1.30;;;22.50;99.90;;;;;;5056588;28;20488;-76
2022/08/18 10:31:53;;;;;;;1.90;1.10;;;22.60;99.90;;;;;;5055174;28;20163;-76
2022/08/18 10:34:39;;;;;;;4.30;1.33;;;22.50;99.90;;;;;;5056650;28;20049;-76
2022/08/18 10:37:26;;;;;;;4.07;1.63;;;22.50;99.90;;;;;;5054930;28;20095;-78
2022/08/18 10:39:59;;;;;;;3.00;1.20;;;22.40;99.90;;;;;;5056182;28;20052;-75
2022/08/18 10:43:06;;;;;;;2.13;1.05;;;22.50;99.90;;;;;;5056445;28;20427;-75
2022/08/18 10:45:46;;;;;;;5.05;1.38;;;22.60;99.90;;;;;;5026355;28;20468;-75
2022/08/18 10:48:30;;;;;;;3.28;1.10;;;23.00;99.90;;;;;;5054765;28;20057;-75
2022/08/18 10:51:19;;;;;;;4.25;1.25;;;23.20;99.90;;;;;;5056374;28;20053;-76
2022/08/18 10:54:03;;;;;;;2.28;1.10;;;23.50;99.90;;;;;;5056036;28;20041;-75
2022/08/18 10:56:44;;;;;;;3.15;1.20;;;23.70;99.90;;;;;;5056131;28;20049;-75
2022/08/18 10:59:47;;;;;;;3.45;1.05;;;23.80;99.90;;;;;;5056164;28;20040;-76
2022/08/18 11:02:43;;;;;;;2.83;1.35;;;23.90;99.90;;;;;;5055774;28;20051;-76
2022/08/18 11:05:15;;;;;;;4.03;1.38;;;23.90;99.90;;;;;;5055970;28;20144;-75
2022/08/18 11:07:47;;;;;;;4.68;1.45;;;24.10;99.90;;;;;;5056031;28;20114;-75
2022/08/18 11:10:36;;;;;;;3.30;1.30;;;24.10;99.90;;;;;;5055938;28;20055;-75
2022/08/18 11:13:31;;;;;;;2.40;1.20;;;24.20;99.90;;;;;;5055722;28;20098;-75
2022/08/18 11:16:26;;;;;;;2.80;1.33;;;24.40;99.90;;;;;;5033858;28;20080;-76
2022/08/18 11:19:02;;;;;;;3.58;1.42;;;24.60;99.90;;;;;;5054346;28;20127;-76
2022/08/18 11:21:34;;;;;;;6.75;1.38;;;24.70;99.90;;;;;;5054173;28;20045;-75
2022/08/18 11:24:02;;;;;;;3.35;1.30;;;24.90;99.90;;;;;;5053579;28;20095;-75
2022/08/18 11:26:33;;;;;;;3.30;1.15;;;24.90;99.90;;;;;;5055217;28;20142;-76
2022/08/18 11:29:13;;;;;;;2.80;1.10;;;25.00;99.90;;;;;;5055603;28;20099;-75
2022/08/18 11:31:39;;;;;;;2.67;1.45;;;25.00;99.90;;;;;;5055320;28;20045;-75
2022/08/18 11:34:10;;;;;;;2.63;1.40;;;25.00;99.90;;;;;;5054163;28;20044;-76
2022/08/18 11:36:35;;;;;;;2.92;1.42;;;24.80;99.90;;;;;;5055344;28;20040;-75
2022/08/18 11:39:01;;;;;;;3.40;1.30;;;24.60;99.90;;;;;;5055467;28;20366;-75
2022/08/18 11:41:27;;;;;;;3.40;1.40;;;24.10;99.90;;;;;;5055066;28;20404;-75
2022/08/18 11:44:02;;;;;;;2.75;1.48;;;24.20;99.90;;;;;;5053826;28;20403;-75
2022/08/18 11:46:37;;;;;;;6.00;1.38;;;24.10;99.90;;;;;;5055240;28;20047;-75
2022/08/18 11:49:28;;;;;;;5.07;2.10;;;24.10;99.90;;;;;;5055280;28;20041;-75
2022/08/18 11:52:26;;;;;;;3.72;1.40;;;24.20;99.90;;;;;;5054832;28;20048;-76
2022/08/18 11:54:59;;;;;;;8.68;1.65;;;24.40;99.90;;;;;;5053580;28;20080;-75
2022/08/18 11:57:51;;;;;;;3.25;1.17;;;24.30;99.90;;;;;;5055073;28;20041;-76
2022/08/18 12:00:40;;;;;;;5.40;1.17;;;24.50;99.90;;;;;;5054882;28;20048;-75
2022/08/18 12:03:20;;;;;;;3.58;1.73;;;24.10;99.90;;;;;;5054789;28;20048;-76
2022/08/18 12:05:53;;;;;;;2.90;1.17;;;24.10;99.90;;;;;;5053436;28;20098;-75
2022/08/18 12:08:41;;;;;;;2.65;1.30;;;24.10;99.90;;;;;;5053962;28;20462;-76
2022/08/18 12:11:16;;;;;;;2.63;1.40;;;24.40;99.90;;;;;;5043696;28;20065;-75
2022/08/18 12:13:55;;;;;;;4.68;1.50;;;24.10;99.90;;;;;;5053526;28;20049;-75
2022/08/18 12:16:37;;;;;;;3.40;1.20;;;24.20;99.90;;;;;;5053205;28;20190;-75
2022/08/18 12:19:05;;;;;;;2.83;1.00;;;24.50;99.90;;;;;;5034819;28;20046;-76
2022/08/18 12:21:31;;;;;;;4.80;1.63;;;24.40;99.90;;;;;;5034428;28;20052;-76
2022/08/18 12:23:57;;;;;;;4.22;1.30;;;24.60;99.90;;;;;;5033182;28;20053;-76
2022/08/18 12:26:23;;;;;;;3.78;1.33;;;24.50;99.90;;;;;;5032872;28;20140;-75
2022/08/18 12:28:48;;;;;;;3.53;1.48;;;24.40;99.90;;;;;;5034646;28;20046;-76
2022/08/18 12:31:14;;;;;;;2.80;1.33;;;24.20;99.90;;;;;;5033014;28;20040;-77
2022/08/18 12:33:40;;;;;;;3.92;1.55;;;23.90;99.90;;;;;;5033276;28;20068;-77
2022/08/18 12:36:07;;;;;;;4.85;1.30;;;23.80;99.90;;;;;;5033402;28;20076;-76
2022/08/18 12:38:33;;;;;;;2.65;1.40;;;24.10;99.90;;;;;;5034534;28;20052;-76
2022/08/18 12:40:59;;;;;;;2.25;1.20;;;24.10;99.90;;;;;;5034255;28;20041;-76
2022/08/18 12:43:26;;;;;;;2.17;1.00;;;24.20;99.90;;;;;;5033598;28;20558;-76
2022/08/18 12:45:52;;;;;;;3.58;1.40;;;24.20;99.90;;;;;;5034135;28;20489;-76
2022/08/18 12:48:18;;;;;;;3.90;1.50;;;24.30;99.90;;;;;;5033063;28;20485;-77
2022/08/18 12:50:43;;;;;;;2.65;1.33;;;24.20;99.90;;;;;;5033002;28;20050;-76
2022/08/18 12:53:10;;;;;;;2.45;1.25;;;24.00;99.90;;;;;;5034088;28;20103;-76
2022/08/18 12:55:42;;;;;;;2.80;1.20;;;24.10;99.90;;;;;;5033969;28;20424;-76
2022/08/18 12:58:08;;;;;;;2.55;1.33;;;23.90;99.90;;;;;;5034053;28;20060;-77
2022/08/18 13:09:15;;;;;;;;;;;;;;;;;;;;;
2022/08/18 13:25:05;;;;;;;2.08;1.02;;;24.30;99.90;;;;;;4865152;29;20157;-77
2022/08/18 13:27:32;;;;;;;4.93;1.00;;;23.80;99.90;;;;;;4880760;29;20144;-77
2022/08/18 13:29:58;;;;;;;2.50;1.10;;;23.80;99.90;;;;;;4969527;28;20054;-77
2022/08/18 13:32:26;;;;;;;13.57;1.50;;;24.00;99.90;;;;;;5004049;28;20095;-76
2022/08/18 13:34:52;;;;;;;2.05;0.95;;;23.90;99.90;;;;;;5033667;28;20049;-77
2022/08/18 13:37:19;;;;;;;3.80;1.60;;;23.90;99.90;;;;;;5032501;28;20358;-77
2022/08/18 13:39:44;;;;;;;4.50;1.42;;;24.00;99.90;;;;;;5032270;28;20120;-76
2022/08/18 13:42:10;;;;;;;3.28;1.35;;;23.50;99.90;;;;;;5032047;28;20187;-76
2022/08/18 13:44:36;;;;;;;3.63;1.27;;;23.40;99.90;;;;;;5032382;28;20044;-76
2022/08/18 13:47:02;;;;;;;3.58;1.33;;;23.50;99.90;;;;;;5034473;28;20130;-76
2022/08/18 13:49:28;;;;;;;2.78;1.45;;;23.30;99.90;;;;;;5040010;28;20037;-76
2022/08/18 13:51:58;;;;;;;5.32;1.30;;;23.30;99.90;;;;;;5039936;28;20059;-76
2022/08/18 13:54:27;;;;;;;4.25;1.60;;;23.50;99.90;;;;;;5039959;28;20045;-76